Time;durP1;ratioP1;P1;durP2;ratioP2;P2;SDS_P1;SDS_P2;PMS_P1;PMS_P2;Temp;Humidity;BMP_temperature;BMP_pressure;BME280_temperature;BME280_humidity;BME280_pressure;Samples;Min_cycle;Max_cycle;Signal;HPM_P1;HPM_P2
2023/12/13 00:01:01;;;;;;;1.90;0.80;;;10.20;99.90;;;10.47;100.00;99043.94;4875719;28;24427;-66
2023/12/13 00:03:23;;;;;;;1.80;1.00;;;10.20;99.90;;;10.48;100.00;99035.94;4879432;28;21359;-66
2023/12/13 00:05:45;;;;;;;0.80;0.80;;;10.20;99.90;;;10.53;100.00;99038.94;4864853;28;24453;-65
2023/12/13 00:08:07;;;;;;;0.70;0.70;;;10.20;99.90;;;10.48;100.00;99041.16;4872238;28;24491;-65
2023/12/13 00:10:29;;;;;;;1.00;0.90;;;10.20;99.90;;;10.50;100.00;99049.66;4873039;28;24455;-66
2023/12/13 00:12:51;;;;;;;1.30;1.20;;;10.20;99.90;;;10.52;100.00;99047.72;4865683;28;25086;-65
2023/12/13 00:15:13;;;;;;;3.10;1.00;;;10.20;99.90;;;10.55;100.00;99042.22;4851305;28;24620;-65
2023/12/13 00:17:35;;;;;;;1.17;0.90;;;10.30;99.90;;;10.57;100.00;99039.47;4868231;28;24530;-66
2023/12/13 00:19:57;;;;;;;2.30;0.80;;;10.30;99.90;;;10.52;100.00;99045.13;4862671;28;24462;-66
2023/12/13 00:22:20;;;;;;;1.05;0.82;;;10.30;99.90;;;10.53;100.00;99041.56;4846650;28;24531;-66
2023/12/13 00:24:42;;;;;;;1.27;1.10;;;10.30;99.90;;;10.58;100.00;99038.50;4874750;28;24484;-65
2023/12/13 00:27:04;;;;;;;2.08;0.90;;;10.30;99.90;;;10.63;100.00;99034.47;4873048;28;24430;-65
2023/12/13 00:29:26;;;;;;;2.20;0.90;;;10.30;99.90;;;10.62;100.00;99037.22;4872216;28;24451;-66
2023/12/13 00:31:48;;;;;;;2.20;0.90;;;10.30;99.90;;;10.56;100.00;99041.25;4811573;28;1749118;-65
2023/12/13 00:34:10;;;;;;;1.85;0.80;;;10.30;99.90;;;10.57;100.00;99040.28;4869356;28;24500;-65
2023/12/13 00:36:32;;;;;;;1.60;1.00;;;10.30;99.90;;;10.60;100.00;99040.00;4873008;28;24508;-65
2023/12/13 00:38:54;;;;;;;0.95;0.80;;;10.30;99.90;;;10.61;100.00;99033.81;4872907;28;24431;-65
2023/12/13 00:41:16;;;;;;;0.90;0.90;;;10.30;99.90;;;10.63;100.00;99039.69;4874624;28;24463;-65
2023/12/13 00:43:38;;;;;;;2.87;0.97;;;10.30;99.90;;;10.66;100.00;99038.56;4868163;28;24969;-65
2023/12/13 00:46:19;;;;;;;1.20;0.98;;;10.30;99.90;;;10.70;100.00;99035.53;4869820;28;24419;-65
2023/12/13 00:48:42;;;;;;;1.00;0.80;;;10.40;99.90;;;10.76;100.00;99036.69;4874276;28;24821;-65
2023/12/13 00:51:04;;;;;;;1.20;0.80;;;10.40;99.90;;;10.67;100.00;99038.41;4872345;28;24430;-61
2023/12/13 00:53:27;;;;;;;1.52;0.80;;;10.40;99.90;;;10.68;100.00;99036.63;4867698;28;24485;-66
2023/12/13 00:55:51;;;;;;;1.30;0.82;;;10.40;99.90;;;10.71;100.00;99036.34;4873791;28;24523;-66
2023/12/13 00:58:13;;;;;;;2.70;0.90;;;10.40;99.90;;;10.68;100.00;99037.47;4869550;28;24454;-66
2023/12/13 01:00:35;;;;;;;1.30;0.80;;;10.40;99.90;;;10.71;100.00;99034.53;4873446;28;24431;-66
2023/12/13 01:02:57;;;;;;;1.48;0.90;;;10.40;99.90;;;10.68;100.00;99044.47;4872577;28;24447;-67
2023/12/13 01:05:20;;;;;;;0.93;0.93;;;10.40;99.90;;;10.67;100.00;99046.25;4880425;28;25022;-66
2023/12/13 01:07:42;;;;;;;2.30;0.75;;;10.40;99.90;;;10.69;100.00;99046.91;4878271;28;24501;-66
2023/12/13 01:10:05;;;;;;;1.80;0.80;;;10.40;99.90;;;10.67;100.00;99045.41;4874005;28;24715;-66
2023/12/13 01:12:27;;;;;;;0.80;0.80;;;10.40;99.90;;;10.69;100.00;99046.13;4869910;28;24443;-66
2023/12/13 01:14:50;;;;;;;1.17;0.80;;;10.40;99.90;;;10.67;100.00;99042.81;4874439;28;24515;-65
2023/12/13 01:17:12;;;;;;;1.40;0.90;;;10.40;99.90;;;10.70;100.00;99045.13;4873784;28;24485;-66
2023/12/13 01:19:34;;;;;;;1.00;0.80;;;10.30;99.90;;;10.73;100.00;99043.03;4864941;28;24455;-66
2023/12/13 01:21:56;;;;;;;2.40;0.93;;;10.40;99.90;;;10.77;100.00;99052.22;4873643;28;24500;-66
2023/12/13 01:24:18;;;;;;;1.50;0.87;;;10.40;99.90;;;10.77;100.00;99054.84;4872355;28;24509;-65
2023/12/13 01:26:40;;;;;;;1.70;0.77;;;10.50;99.90;;;10.78;100.00;99051.22;4873971;28;25056;-67
2023/12/13 01:29:02;;;;;;;1.20;1.05;;;10.50;99.90;;;10.80;100.00;99057.13;4873714;28;24542;-66
2023/12/13 01:31:24;;;;;;;1.90;0.80;;;10.50;99.90;;;10.81;100.00;99063.16;4872198;28;24451;-66
2023/12/13 01:33:46;;;;;;;0.80;0.80;;;10.50;99.90;;;10.81;100.00;99060.56;4866624;28;24478;-66
2023/12/13 01:36:09;;;;;;;0.93;0.70;;;10.50;99.90;;;10.69;100.00;99059.16;4866350;28;24470;-66
2023/12/13 01:38:31;;;;;;;0.80;0.80;;;10.40;99.90;;;10.71;100.00;99068.44;4859928;28;24536;-66
2023/12/13 01:40:53;;;;;;;1.30;0.80;;;10.40;99.90;;;10.77;100.00;99062.66;4864788;28;24574;-66
2023/12/13 01:43:34;;;;;;;0.70;0.70;;;10.40;99.90;;;10.81;100.00;99064.00;4872327;28;25069;-65
2023/12/13 01:45:57;;;;;;;1.75;0.90;;;10.50;99.90;;;10.82;100.00;99065.63;4871831;28;24963;-66
2023/12/13 01:48:22;;;;;;;0.75;0.70;;;10.50;99.90;;;10.74;100.00;99055.13;4867932;28;25106;-67
2023/12/13 01:50:44;;;;;;;1.50;0.80;;;10.50;99.90;;;10.77;100.00;99056.63;4871921;28;24455;-67
2023/12/13 01:53:06;;;;;;;2.63;0.88;;;10.50;99.90;;;10.78;100.00;99053.00;4874153;28;24988;-66
2023/12/13 01:55:28;;;;;;;1.25;1.02;;;10.40;99.90;;;10.80;99.91;99051.91;4878885;28;24438;-66
2023/12/13 01:57:49;;;;;;;1.10;0.70;;;10.40;99.90;;;10.81;100.00;99048.34;4869101;28;25015;-66
2023/12/13 02:00:13;;;;;;;0.90;0.90;;;10.50;99.90;;;10.79;99.80;99055.50;4871944;28;24527;-66
2023/12/13 02:02:35;;;;;;;0.95;0.70;;;10.50;99.90;;;10.76;98.98;99050.56;4871080;28;24928;-66
2023/12/13 02:05:00;;;;;;;1.20;0.80;;;10.40;99.90;;;10.83;99.52;99056.84;4871540;28;25096;-66
2023/12/13 02:07:22;;;;;;;0.70;0.70;;;10.50;99.90;;;10.81;99.06;99058.78;4859710;28;25057;-66
2023/12/13 02:09:44;;;;;;;0.90;0.50;;;10.50;99.90;;;10.82;99.26;99049.13;4877948;28;24423;-66
2023/12/13 02:12:06;;;;;;;3.80;0.80;;;10.50;99.90;;;10.73;98.85;99040.41;4870972;28;24426;-66
2023/12/13 02:14:28;;;;;;;0.90;0.90;;;10.50;99.90;;;10.71;99.71;99047.56;4867487;28;24836;-66
2023/12/13 02:16:53;;;;;;;1.63;0.70;;;10.40;99.90;;;10.68;99.53;99034.84;4862921;28;24522;-66
2023/12/13 02:19:14;;;;;;;0.77;0.77;;;10.40;99.90;;;10.49;100.00;99032.38;4868093;28;24479;-66
2023/12/13 02:21:37;;;;;;;1.02;0.70;;;10.30;99.90;;;10.41;100.00;99031.50;4868510;28;24464;-66
2023/12/13 02:24:04;;;;;;;1.10;0.70;;;10.20;99.90;;;10.40;100.00;99028.06;4864728;28;24439;-66
2023/12/13 02:26:26;;;;;;;0.85;0.68;;;10.20;99.90;;;10.37;100.00;99022.31;4856874;28;24435;-66
2023/12/13 02:28:48;;;;;;;1.42;0.90;;;10.10;99.90;;;10.33;100.00;99020.97;4873711;28;24458;-66
2023/12/13 02:31:14;;;;;;;0.70;0.70;;;10.10;99.90;;;10.18;100.00;99012.81;4872734;28;24427;-66
2023/12/13 02:33:40;;;;;;;2.50;0.95;;;10.00;99.90;;;10.20;100.00;99020.50;4853668;28;24443;-66
2023/12/13 02:36:03;;;;;;;2.38;0.80;;;10.00;99.90;;;10.19;100.00;99017.09;4861853;28;24439;-65
2023/12/13 02:38:26;;;;;;;0.70;0.60;;;10.00;99.90;;;10.19;100.00;99021.47;4866096;28;24840;-66
2023/12/13 02:40:48;;;;;;;3.50;0.80;;;10.00;99.90;;;10.22;100.00;99018.59;4872544;28;24509;-66
2023/12/13 02:43:10;;;;;;;2.00;0.70;;;10.00;99.90;;;10.21;100.00;99022.13;4868193;28;25030;-66
2023/12/13 02:45:32;;;;;;;1.50;0.63;;;10.00;99.90;;;10.19;100.00;99016.25;4862100;28;25054;-66
2023/12/13 02:47:56;;;;;;;2.10;0.70;;;9.90;99.90;;;10.21;100.00;99012.53;4874457;28;24992;-65
2023/12/13 02:50:18;;;;;;;1.10;0.80;;;9.90;99.90;;;10.18;100.00;99012.03;4864576;28;26495;-64
2023/12/13 02:52:41;;;;;;;2.00;0.90;;;9.90;99.90;;;10.12;100.00;99008.19;4857455;28;24472;-66
2023/12/13 02:55:04;;;;;;;1.20;0.70;;;9.90;99.90;;;10.09;100.00;99013.69;4868275;28;24450;-66
2023/12/13 02:57:26;;;;;;;2.05;0.60;;;9.80;99.90;;;10.13;100.00;99005.47;4874210;28;24431;-66
2023/12/13 02:59:47;;;;;;;1.50;0.80;;;9.90;99.90;;;10.13;100.00;99002.88;4864790;28;24917;-66
2023/12/13 03:02:09;;;;;;;0.60;0.60;;;9.90;99.90;;;10.09;100.00;99003.28;4873175;28;25077;-66
2023/12/13 03:04:31;;;;;;;2.30;0.60;;;9.80;99.90;;;10.13;100.00;98991.63;4862274;28;24552;-66
2023/12/13 03:06:53;;;;;;;1.30;0.65;;;9.80;99.90;;;10.20;100.00;99004.88;4874220;28;24446;-66
2023/12/13 03:09:15;;;;;;;1.00;0.60;;;9.90;99.90;;;10.21;100.00;99002.13;4875555;28;24487;-66
2023/12/13 03:11:39;;;;;;;3.10;0.70;;;9.90;99.90;;;10.22;100.00;99002.94;4870578;28;24443;-66
2023/12/13 03:14:01;;;;;;;0.70;0.70;;;9.90;99.90;;;10.18;100.00;99007.59;4869081;28;24527;-66
2023/12/13 03:16:24;;;;;;;0.60;0.60;;;9.90;99.90;;;10.16;100.00;98998.31;4878456;28;24443;-66
2023/12/13 03:18:46;;;;;;;1.80;0.68;;;9.90;99.90;;;10.16;100.00;98998.31;4876837;28;24427;-66
2023/12/13 03:21:08;;;;;;;1.00;0.60;;;9.90;99.90;;;10.20;100.00;99000.47;4868339;28;24551;-66
2023/12/13 03:23:30;;;;;;;1.65;0.60;;;9.90;99.90;;;10.21;100.00;98990.88;4875103;28;24497;-66
2023/12/13 03:25:52;;;;;;;3.05;0.70;;;9.90;99.90;;;10.25;100.00;98989.59;4871041;28;24630;-65
2023/12/13 03:28:14;;;;;;;1.00;0.50;;;10.00;99.90;;;10.24;100.00;98980.97;4869426;28;24578;-65
2023/12/13 03:30:36;;;;;;;1.60;0.60;;;10.00;99.90;;;10.16;100.00;98983.47;4875151;28;24434;-65
2023/12/13 03:32:58;;;;;;;0.60;0.60;;;9.90;99.90;;;10.13;100.00;98984.63;4876671;28;24430;-66
2023/12/13 03:35:20;;;;;;;0.60;0.60;;;9.90;99.90;;;10.17;100.00;98987.75;4873088;28;24451;-65
2023/12/13 03:37:42;;;;;;;1.00;0.70;;;9.90;99.90;;;10.23;100.00;98978.50;4872794;28;24433;-66
2023/12/13 03:40:05;;;;;;;1.10;0.60;;;9.90;99.90;;;10.23;100.00;98976.72;4874639;28;24851;-66
2023/12/13 03:42:27;;;;;;;0.52;0.52;;;10.00;99.90;;;10.23;100.00;98978.50;4873027;28;24939;-65
2023/12/13 03:44:49;;;;;;;2.65;0.80;;;10.00;99.90;;;10.17;100.00;98973.88;4873423;28;24473;-65
2023/12/13 03:47:11;;;;;;;0.70;0.70;;;9.90;99.90;;;10.20;100.00;98978.81;4872433;28;24538;-65
2023/12/13 03:49:33;;;;;;;0.50;0.50;;;9.90;99.90;;;10.20;100.00;98979.63;4873572;28;24458;-65
2023/12/13 03:51:55;;;;;;;0.95;0.60;;;9.90;99.90;;;10.20;100.00;98984.03;4870717;28;24439;-65
2023/12/13 03:54:17;;;;;;;0.60;0.60;;;9.90;99.90;;;10.22;100.00;98985.53;4868156;28;24871;-65
2023/12/13 03:56:39;;;;;;;0.70;0.60;;;9.90;99.90;;;10.19;100.00;98980.59;4880192;28;24518;-65
2023/12/13 03:59:01;;;;;;;0.80;0.80;;;9.90;99.90;;;10.21;100.00;98981.25;4849444;28;24447;-65
2023/12/13 04:01:22;;;;;;;0.60;0.60;;;9.90;99.90;;;10.24;100.00;98980.16;4875589;28;25197;-65
2023/12/13 04:03:44;;;;;;;1.80;0.60;;;9.90;99.90;;;10.21;100.00;98968.22;4874037;28;24447;-65
2023/12/13 04:06:07;;;;;;;0.60;0.60;;;9.90;99.90;;;10.22;100.00;98966.44;4874422;28;20769;-63
2023/12/13 04:08:29;;;;;;;2.70;0.60;;;9.90;99.90;;;10.22;100.00;98966.44;4872191;28;24814;-65
2023/12/13 04:10:51;;;;;;;1.20;0.70;;;9.90;99.90;;;10.21;100.00;98970.84;4875170;28;25012;-65
2023/12/13 04:13:13;;;;;;;0.90;0.60;;;9.90;99.90;;;10.25;100.00;98966.97;4874526;28;24790;-65
2023/12/13 04:15:35;;;;;;;0.70;0.50;;;9.90;99.90;;;10.22;100.00;98956.84;4864064;28;24467;-65
2023/12/13 04:17:57;;;;;;;1.00;0.70;;;10.00;99.90;;;10.12;100.00;98962.13;4867381;28;24446;-65
2023/12/13 04:20:19;;;;;;;2.40;0.70;;;9.90;99.90;;;10.09;100.00;98958.97;4866120;28;24449;-65
2023/12/13 04:22:41;;;;;;;1.00;0.70;;;9.90;99.90;;;10.06;100.00;98956.66;4871844;28;24465;-65
2023/12/13 04:25:03;;;;;;;1.60;0.60;;;9.80;99.90;;;10.09;100.00;98958.97;4874364;28;24977;-65
2023/12/13 04:27:26;;;;;;;1.70;0.80;;;9.80;99.90;;;10.07;100.00;98953.09;4873176;28;24530;-65
2023/12/13 04:29:47;;;;;;;1.20;0.70;;;9.80;99.90;;;10.04;100.00;98943.78;4874404;28;24888;-65
2023/12/13 04:32:09;;;;;;;1.40;0.80;;;9.80;99.90;;;9.99;100.00;98934.75;4870851;28;24488;-65
2023/12/13 04:34:31;;;;;;;1.40;0.90;;;9.80;99.90;;;9.99;100.00;98939.94;4870857;28;24431;-65
2023/12/13 04:36:53;;;;;;;2.00;0.90;;;9.70;99.90;;;9.98;100.00;98933.13;4873792;28;24426;-65
2023/12/13 04:39:15;;;;;;;1.30;0.90;;;9.70;99.90;;;9.99;100.00;98943.38;4856748;28;25038;-66
2023/12/13 04:41:38;;;;;;;1.40;0.80;;;9.70;99.90;;;9.99;100.00;98932.97;4872679;28;24451;-65
2023/12/13 04:44:00;;;;;;;2.40;1.00;;;9.70;99.90;;;9.94;100.00;98930.00;4864822;28;24988;-65
2023/12/13 04:46:22;;;;;;;2.20;0.90;;;9.70;99.90;;;9.83;100.00;98922.38;4873588;28;24513;-65
2023/12/13 04:48:44;;;;;;;2.00;0.90;;;9.70;99.90;;;9.85;100.00;98924.84;4856503;28;24602;-65
2023/12/13 04:51:06;;;;;;;1.35;0.95;;;9.70;99.90;;;9.76;100.00;98929.13;4859437;28;24515;-64
2023/12/13 04:53:28;;;;;;;1.70;1.00;;;9.60;99.90;;;9.61;100.00;98927.16;4874241;28;24470;-65
2023/12/13 04:55:50;;;;;;;3.15;1.10;;;9.50;99.90;;;9.62;100.00;98921.81;4872390;28;24451;-65
2023/12/13 04:58:12;;;;;;;3.20;0.90;;;9.40;99.90;;;9.58;100.00;98933.50;4863327;28;24431;-66
2023/12/13 05:00:34;;;;;;;1.17;0.90;;;9.40;99.90;;;9.54;100.00;98926.13;4864879;28;24530;-65
2023/12/13 05:02:56;;;;;;;0.80;0.80;;;9.30;99.90;;;9.56;100.00;98921.59;4867982;28;25009;-65
2023/12/13 05:05:18;;;;;;;1.60;0.95;;;9.30;99.90;;;9.61;100.00;98916.75;4876133;28;24486;-64
2023/12/13 05:07:40;;;;;;;1.20;1.10;;;9.30;99.90;;;9.60;100.00;98922.94;4872280;28;24550;-66
2023/12/13 05:10:02;;;;;;;3.85;0.82;;;9.30;99.90;;;9.62;100.00;98921.00;4874763;28;24462;-64
2023/12/13 05:12:24;;;;;;;1.20;0.80;;;9.30;99.90;;;9.64;100.00;98919.06;4871758;28;24503;-65
2023/12/13 05:14:46;;;;;;;0.70;0.70;;;9.40;99.90;;;9.56;100.00;98914.56;4872396;28;24870;-67
2023/12/13 05:17:08;;;;;;;1.00;0.90;;;9.40;99.90;;;9.55;100.00;98914.72;4866949;28;24526;-67
2023/12/13 05:19:30;;;;;;;0.95;0.85;;;9.30;99.90;;;9.55;100.00;98925.97;4873643;28;24427;-67
2023/12/13 05:21:52;;;;;;;1.65;0.90;;;9.30;99.90;;;9.62;100.00;98913.19;4871211;28;24479;-68
2023/12/13 05:24:14;;;;;;;0.80;0.80;;;9.30;99.90;;;9.68;100.00;98918.63;4874868;28;24431;-67
2023/12/13 05:26:36;;;;;;;1.83;0.90;;;9.40;99.90;;;9.69;100.00;98920.25;4871890;28;24465;-66
2023/12/13 05:28:58;;;;;;;3.40;0.90;;;9.40;99.90;;;9.70;100.00;98921.91;4873540;28;24534;-66
2023/12/13 05:31:22;;;;;;;1.30;1.00;;;9.40;99.90;;;9.61;100.00;98914.13;4868081;28;25072;-66
2023/12/13 05:33:44;;;;;;;1.00;1.00;;;9.40;99.90;;;9.60;100.00;98917.72;4873510;28;24431;-66
2023/12/13 05:36:08;;;;;;;2.25;1.20;;;9.40;99.90;;;9.55;100.00;98919.94;4871029;28;24443;-65
2023/12/13 05:38:29;;;;;;;3.50;1.02;;;9.30;99.90;;;9.53;100.00;98917.47;4878671;28;24513;-65
2023/12/13 05:40:51;;;;;;;1.90;0.90;;;9.30;99.90;;;9.55;100.00;98905.13;4874609;28;24506;-64
2023/12/13 05:43:13;;;;;;;1.00;0.90;;;9.30;99.90;;;9.54;100.00;98908.69;4870543;28;24445;-65
2023/12/13 05:45:35;;;;;;;1.40;0.80;;;9.30;99.90;;;9.56;100.00;98909.38;4871378;28;24443;-65
2023/12/13 05:47:58;;;;;;;1.33;0.80;;;9.30;99.90;;;9.53;100.00;98907.06;4870440;28;25075;-66
2023/12/13 05:50:20;;;;;;;2.03;0.90;;;9.30;99.90;;;9.55;100.00;98909.53;4871461;28;24478;-64
2023/12/13 05:52:42;;;;;;;0.90;0.70;;;9.30;99.90;;;9.42;100.00;98907.25;4863571;28;24444;-64
2023/12/13 05:55:06;;;;;;;1.20;0.60;;;9.30;99.90;;;9.41;100.00;98903.03;4873972;28;24473;-65
2023/12/13 05:57:28;;;;;;;1.20;0.80;;;9.20;99.90;;;9.39;100.00;98904.97;4873775;28;24484;-67
2023/12/13 05:59:49;;;;;;;1.30;0.90;;;9.20;99.90;;;9.39;100.00;98910.97;4872337;28;24519;-64
2023/12/13 06:02:11;;;;;;;1.90;1.20;;;9.10;99.90;;;9.42;100.00;98899.44;4859074;28;24801;-66
2023/12/13 06:04:33;;;;;;;1.60;0.70;;;9.20;99.90;;;9.49;100.00;98897.09;4873708;28;24517;-66
2023/12/13 06:06:55;;;;;;;1.10;1.00;;;9.20;99.90;;;9.52;100.00;98895.00;4870499;28;24439;-66
2023/12/13 06:09:18;;;;;;;1.15;0.90;;;9.30;99.90;;;9.54;100.00;98905.28;4873614;28;24478;-66
2023/12/13 06:11:40;;;;;;;2.33;1.20;;;9.30;99.90;;;9.57;100.00;98902.38;4875289;28;24532;-66
2023/12/13 06:14:02;;;;;;;1.30;1.20;;;9.30;99.90;;;9.53;100.00;98901.03;4868630;28;25015;-66
2023/12/13 06:16:24;;;;;;;0.90;0.90;;;9.30;99.90;;;9.48;100.00;98898.03;4866463;28;24531;-65
2023/12/13 06:18:46;;;;;;;2.05;1.20;;;9.30;99.90;;;9.51;100.00;98898.59;4861849;28;20796;-66
2023/12/13 06:21:08;;;;;;;1.15;1.10;;;9.30;99.90;;;9.55;100.00;98899.09;4867879;28;24542;-66
2023/12/13 06:23:30;;;;;;;1.10;1.00;;;9.30;99.90;;;9.52;100.00;98891.59;4873035;28;24832;-65
2023/12/13 06:25:52;;;;;;;2.70;1.00;;;9.30;99.90;;;9.46;100.00;98894.75;4870796;28;24426;-66
2023/12/13 06:28:14;;;;;;;2.00;1.00;;;9.20;99.90;;;9.39;100.00;98907.56;4865174;28;24443;-65
2023/12/13 06:30:36;;;;;;;0.90;0.90;;;9.20;99.90;;;9.43;100.00;98893.28;4869913;28;24459;-66
2023/12/13 06:32:59;;;;;;;2.30;1.10;;;9.20;99.90;;;9.50;100.00;98890.94;4875959;28;24983;-66
2023/12/13 06:35:21;;;;;;;1.60;1.00;;;9.20;99.90;;;9.46;100.00;98890.38;4853276;28;24481;-65
2023/12/13 06:37:43;;;;;;;2.53;1.08;;;9.20;99.90;;;9.46;100.00;98892.16;4875403;28;24933;-66
2023/12/13 06:40:06;;;;;;;2.78;1.00;;;9.20;99.90;;;9.48;100.00;98887.63;4876500;28;24518;-66
2023/12/13 06:42:28;;;;;;;1.10;0.90;;;9.20;99.90;;;9.46;100.00;98890.38;4868463;28;24582;-66
2023/12/13 06:44:50;;;;;;;1.25;1.00;;;9.20;99.90;;;9.48;100.00;98883.25;4867675;28;24852;-65
2023/12/13 06:47:12;;;;;;;1.50;1.40;;;9.30;99.90;;;9.56;100.00;98885.13;4863540;28;24471;-66
2023/12/13 06:49:34;;;;;;;0.98;0.80;;;9.30;99.90;;;9.53;100.00;98886.25;4871184;28;25081;-65
2023/12/13 06:52:00;;;;;;;1.10;1.00;;;9.30;99.90;;;9.48;100.00;98883.25;4869014;28;25135;-65
2023/12/13 06:54:22;;;;;;;2.20;1.08;;;9.30;99.90;;;9.45;100.00;98877.53;4872100;28;25075;-65
2023/12/13 06:56:43;;;;;;;2.22;1.40;;;9.20;99.90;;;9.49;100.00;98877.09;4879323;28;24424;-65
2023/12/13 06:59:07;;;;;;;1.40;1.30;;;9.30;99.90;;;9.51;100.00;98874.34;4871496;28;24453;-66
2023/12/13 07:01:28;;;;;;;1.92;1.65;;;9.30;99.90;;;9.55;100.00;98883.47;4871203;28;24493;-65
2023/12/13 07:03:50;;;;;;;3.42;1.80;;;9.30;99.90;;;9.51;100.00;98882.16;4876904;28;24423;-67
2023/12/13 07:06:16;;;;;;;1.92;1.63;;;9.30;99.90;;;9.45;100.00;98867.09;4873579;28;24446;-65
2023/12/13 07:08:40;;;;;;;1.85;1.70;;;9.30;99.90;;;9.44;100.00;98871.50;4860382;28;24440;-67
2023/12/13 07:11:03;;;;;;;2.63;1.40;;;9.20;99.90;;;9.39;100.00;98882.34;4870425;28;24451;-64
2023/12/13 07:13:25;;;;;;;2.05;1.83;;;9.20;99.90;;;9.38;100.00;98883.31;4877180;28;24434;-64
2023/12/13 07:15:47;;;;;;;1.70;1.60;;;9.20;99.90;;;9.45;100.00;98883.56;4868678;28;24930;-64
2023/12/13 07:18:09;;;;;;;1.63;1.30;;;9.20;99.90;;;9.45;100.00;98873.16;4876134;28;25043;-65
2023/12/13 07:20:31;;;;;;;2.45;1.77;;;9.20;99.90;;;9.43;100.00;98869.88;4874642;28;24835;-64
2023/12/13 07:22:53;;;;;;;4.00;2.10;;;9.20;99.90;;;9.34;100.00;98863.75;4878535;28;25062;-65
2023/12/13 07:25:16;;;;;;;2.33;2.10;;;9.10;99.90;;;9.35;100.00;98867.16;4876009;28;24435;-65
2023/12/13 07:27:38;;;;;;;2.93;1.90;;;9.10;99.90;;;9.33;100.00;98862.09;4861930;28;24571;-65
2023/12/13 07:29:59;;;;;;;2.63;1.88;;;9.10;99.90;;;9.37;100.00;98875.63;4874272;28;25004;-65
2023/12/13 07:32:21;;;;;;;2.40;2.00;;;9.10;99.90;;;9.34;100.00;98875.94;4877673;28;24516;-64
2023/12/13 07:34:44;;;;;;;2.45;1.95;;;9.10;99.90;;;9.33;100.00;98876.88;4874300;28;24443;-65
2023/12/13 07:37:08;;;;;;;2.20;1.90;;;9.10;99.90;;;9.25;100.00;98874.19;4869008;28;24443;-65
2023/12/13 07:39:35;;;;;;;2.20;1.70;;;9.10;99.90;;;9.26;100.00;98876.63;4871026;28;24805;-65
2023/12/13 07:41:58;;;;;;;4.25;2.10;;;9.10;99.90;;;9.19;100.00;98883.41;4874395;28;24436;-65
2023/12/13 07:44:20;;;;;;;2.80;2.60;;;9.00;99.90;;;9.22;100.00;98882.31;4870145;28;24440;-65
2023/12/13 07:46:41;;;;;;;2.95;2.30;;;9.00;99.90;;;9.21;100.00;98875.44;4871760;28;25329;-65
2023/12/13 07:49:04;;;;;;;3.78;2.28;;;9.00;99.90;;;9.24;100.00;98869.97;4867009;28;24451;-65
2023/12/13 07:51:26;;;;;;;3.30;2.90;;;9.00;99.90;;;9.32;100.00;98876.09;4869927;28;24502;-65
2023/12/13 07:53:47;;;;;;;3.70;2.80;;;9.10;99.90;;;9.35;100.00;98875.78;4868694;28;24441;-65
2023/12/13 07:56:10;;;;;;;2.80;2.50;;;9.10;99.90;;;9.35;100.00;98873.19;4874844;28;24512;-65
2023/12/13 07:58:41;;;;;;;2.15;1.98;;;9.10;99.90;;;9.42;100.00;98868.22;4859460;28;25008;-65
2023/12/13 08:01:04;;;;;;;2.50;2.10;;;9.20;99.90;;;9.38;100.00;98864.25;4871257;28;24438;-65
2023/12/13 08:03:26;;;;;;;2.00;1.90;;;9.20;99.90;;;9.32;100.00;98880.47;4874548;28;24516;-65
2023/12/13 08:05:48;;;;;;;3.22;2.17;;;9.10;99.90;;;9.29;100.00;98878.97;4876988;28;24443;-65
2023/12/13 08:08:10;;;;;;;4.05;2.10;;;9.10;99.90;;;9.26;100.00;98886.25;4876603;28;24431;-65
2023/12/13 08:10:32;;;;;;;2.20;2.00;;;9.00;99.90;;;9.32;100.00;98881.28;4875641;28;24462;-66
2023/12/13 08:12:54;;;;;;;2.10;1.90;;;9.10;99.90;;;9.30;100.00;98875.41;4883518;28;24429;-64
2023/12/13 08:15:15;;;;;;;1.85;1.75;;;9.10;99.90;;;9.35;100.00;98878.38;4868520;28;24445;-64
2023/12/13 08:17:38;;;;;;;2.13;1.92;;;9.10;99.90;;;9.36;100.00;98877.44;4871499;28;24882;-64
2023/12/13 08:20:00;;;;;;;5.50;1.77;;;9.10;99.90;;;9.42;100.00;98872.59;4871395;28;24442;-64
2023/12/13 08:22:22;;;;;;;2.78;2.10;;;9.20;99.90;;;9.45;100.00;98875.75;4879722;28;25166;-65
2023/12/13 08:24:45;;;;;;;3.22;1.90;;;9.20;99.90;;;9.41;100.00;98876.19;4877853;28;24427;-64
2023/12/13 08:27:07;;;;;;;2.00;1.80;;;9.20;99.90;;;9.52;100.00;98868.97;4880058;28;24536;-64
2023/12/13 08:29:30;;;;;;;2.15;2.00;;;9.20;99.90;;;9.65;100.00;98853.81;4879625;28;24458;-66
2023/12/13 08:31:52;;;;;;;1.67;1.57;;;9.40;99.90;;;9.77;100.00;98865.69;4849912;28;24942;-64
2023/12/13 08:34:15;;;;;;;3.45;1.63;;;9.50;99.90;;;9.82;100.00;98865.22;4875449;28;24434;-64
2023/12/13 08:36:37;;;;;;;2.72;2.20;;;9.50;99.90;;;9.90;100.00;98870.53;4871962;28;24526;-68
2023/12/13 08:38:58;;;;;;;1.70;1.60;;;9.60;99.90;;;9.98;100.00;98874.03;4876981;28;24427;-64
2023/12/13 08:41:20;;;;;;;1.85;1.58;;;9.70;99.90;;;10.05;100.00;98866.44;4876934;28;24537;-64
2023/12/13 08:43:42;;;;;;;1.80;1.70;;;9.80;99.90;;;10.17;100.00;98874.84;4871568;28;24545;-65
2023/12/13 08:46:04;;;;;;;1.90;1.70;;;9.80;99.90;;;10.30;100.00;98868.31;4855762;28;24505;-64
2023/12/13 08:48:26;;;;;;;2.67;1.70;;;10.00;99.90;;;10.40;100.00;98870.81;4872892;28;24437;-65
2023/12/13 08:50:48;;;;;;;2.60;1.50;;;10.10;99.90;;;10.61;100.00;98881.72;4866639;28;24451;-64
2023/12/13 08:53:11;;;;;;;1.85;1.40;;;10.20;99.90;;;11.38;100.00;98879.88;4854290;28;24793;-67
2023/12/13 08:55:33;;;;;;;4.53;1.40;;;10.70;99.90;;;12.82;92.00;98878.38;4873232;28;24604;-66
2023/12/13 08:57:55;;;;;;;1.40;1.30;;;11.80;99.90;;;13.20;87.44;98884.72;4870415;28;24447;-66
2023/12/13 09:00:17;;;;;;;3.00;1.20;;;12.40;99.90;;;13.33;84.74;98882.34;4869619;28;24542;-68
2023/12/13 09:02:39;;;;;;;1.33;1.23;;;12.70;99.90;;;12.95;86.27;98875.25;4872529;28;25398;-65
2023/12/13 09:05:01;;;;;;;1.97;1.30;;;12.50;99.90;;;12.44;88.72;98874.69;4868985;28;25039;-66
2023/12/13 09:07:23;;;;;;;1.25;1.15;;;12.20;99.90;;;11.99;90.66;98879.56;4875113;28;24454;-65
2023/12/13 09:09:45;;;;;;;1.30;1.20;;;11.80;99.90;;;11.72;92.79;98876.41;4871508;28;24538;-64
2023/12/13 09:12:07;;;;;;;1.80;1.10;;;11.50;99.90;;;11.50;93.51;98875.97;4873400;28;24956;-65
2023/12/13 09:14:28;;;;;;;2.47;1.30;;;11.30;99.90;;;11.33;95.68;98882.13;4872182;28;25309;-65
2023/12/13 09:16:51;;;;;;;1.00;1.00;;;11.10;99.90;;;11.21;95.79;98877.34;4869986;28;24538;-65
2023/12/13 09:19:13;;;;;;;1.20;1.13;;;11.00;99.90;;;11.17;96.17;98876.00;4873794;28;24439;-65
2023/12/13 09:21:35;;;;;;;1.38;1.20;;;10.90;99.90;;;11.05;97.28;98885.09;4873118;28;24431;-66
2023/12/13 09:23:56;;;;;;;1.37;1.23;;;10.90;99.90;;;11.36;96.66;98887.03;4867207;28;25237;-67
2023/12/13 09:26:18;;;;;;;1.65;1.50;;;10.90;99.90;;;11.72;95.35;98882.44;4873341;28;24524;-66
2023/12/13 09:28:40;;;;;;;5.60;1.38;;;11.20;99.90;;;12.03;94.04;98883.47;4855754;28;24527;-66
2023/12/13 09:31:04;;;;;;;1.90;1.15;;;11.40;99.90;;;12.25;91.82;98885.47;4865594;28;24451;-66
2023/12/13 09:33:26;;;;;;;1.30;1.00;;;11.60;99.90;;;12.37;90.29;98876.31;4874480;28;24432;-66
2023/12/13 09:35:48;;;;;;;1.00;1.00;;;11.80;99.90;;;12.43;88.93;98887.94;4873698;28;24519;-67
2023/12/13 09:38:10;;;;;;;1.38;0.90;;;11.90;99.90;;;12.36;89.13;98885.16;4867498;28;24559;-67
2023/12/13 09:40:32;;;;;;;2.70;0.90;;;12.00;99.90;;;12.33;89.00;98884.63;4875606;28;24458;-66
2023/12/13 09:42:54;;;;;;;1.90;0.90;;;11.90;99.90;;;12.33;88.63;98893.31;4875900;28;24518;-65
2023/12/13 09:45:21;;;;;;;3.17;1.10;;;11.90;99.90;;;12.37;88.61;98888.59;4869234;28;24908;-66
2023/12/13 09:47:49;;;;;;;1.83;0.80;;;11.90;99.90;;;12.50;88.13;98891.50;4881069;28;24887;-63
2023/12/13 09:50:11;;;;;;;2.10;0.90;;;12.00;99.90;;;12.65;87.81;98896.91;4858021;28;24482;-64
2023/12/13 09:52:35;;;;;;;1.30;1.00;;;12.10;99.90;;;12.69;86.61;98887.75;4871324;28;24478;-66
2023/12/13 09:54:57;;;;;;;1.20;0.95;;;12.20;99.90;;;12.67;86.33;98885.28;4868558;28;24432;-65
2023/12/13 09:57:19;;;;;;;1.23;1.17;;;12.20;99.90;;;12.70;86.58;98887.56;4855823;28;24478;-65
2023/12/13 09:59:41;;;;;;;1.30;1.00;;;12.20;99.90;;;12.85;86.56;98893.78;4866304;28;24479;-65